Time;durP1;ratioP1;P1;durP2;ratioP2;P2;SDS_P1;SDS_P2;PMS_P1;PMS_P2;Temp;Humidity;BMP_temperature;BMP_pressure;BME280_temperature;BME280_humidity;BME280_pressure;Samples;Min_cycle;Max_cycle;Signal;HPM_P1;HPM_P2
2023/12/06 00:01:44;;;;;;;817.67;753.97;;;0.80;99.90;;;;;;5069734;28;20037;-86
2023/12/06 00:04:10;;;;;;;817.53;752.83;;;0.90;99.90;;;;;;5070218;28;20028;-86
2023/12/06 00:06:35;;;;;;;823.72;759.35;;;1.00;99.90;;;;;;5071524;28;20045;-86
2023/12/06 00:09:01;;;;;;;845.70;776.45;;;1.00;99.90;;;;;;5068774;28;20037;-86
2023/12/06 00:11:27;;;;;;;821.65;756.35;;;0.90;99.90;;;;;;5049259;28;20517;-86
2023/12/06 00:13:52;;;;;;;853.75;786.40;;;0.90;99.90;;;;;;5049341;28;20037;-86
2023/12/06 00:16:18;;;;;;;839.65;773.13;;;1.00;99.90;;;;;;5049488;28;20049;-86
2023/12/06 00:18:45;;;;;;;842.10;775.58;;;1.70;99.90;;;;;;5051428;28;20413;-86
2023/12/06 00:21:11;;;;;;;837.75;771.38;;;1.00;99.90;;;;;;5050092;28;20535;-86
2023/12/06 00:23:37;;;;;;;851.03;783.28;;;0.70;99.90;;;;;;5045988;28;20045;-86
2023/12/06 00:26:02;;;;;;;872.80;801.58;;;1.00;99.90;;;;;;5048760;28;20041;-86
2023/12/06 00:28:28;;;;;;;880.90;808.35;;;1.00;99.90;;;;;;5052489;28;20072;-86
2023/12/06 00:30:54;;;;;;;861.75;793.63;;;2.10;99.90;;;;;;5052325;28;20037;-86
2023/12/06 00:33:19;;;;;;;870.95;797.88;;;1.00;99.90;;;;;;5049021;28;20045;-86
2023/12/06 00:35:45;;;;;;;841.97;775.13;;;2.10;99.90;;;;;;5046835;28;20029;-86
2023/12/06 00:38:11;;;;;;;849.65;781.85;;;1.80;99.90;;;;;;5052015;28;20059;-86
2023/12/06 00:40:36;;;;;;;839.55;773.42;;;1.00;99.90;;;;;;5065787;28;20059;-86
2023/12/06 00:43:05;;;;;;;844.50;777.60;;;1.00;99.90;;;;;;5072640;28;20120;-86
2023/12/06 00:45:30;;;;;;;843.38;776.17;;;2.40;99.90;;;;;;5057330;28;20060;-86
2023/12/06 00:47:56;;;;;;;859.67;791.50;;;2.20;99.90;;;;;;5056259;28;20039;-86
2023/12/06 00:50:22;;;;;;;871.97;800.03;;;1.70;99.90;;;;;;5053357;28;20078;-86
2023/12/06 00:52:48;;;;;;;855.85;786.70;;;1.30;99.90;;;;;;5052128;28;20036;-87
2023/12/06 00:55:13;;;;;;;838.83;772.72;;;1.10;99.90;;;;;;5052634;28;20037;-87
2023/12/06 00:57:39;;;;;;;873.92;801.00;;;1.10;99.90;;;;;;5055598;28;20152;-86
2023/12/06 01:00:07;;;;;;;875.33;801.95;;;1.50;99.90;;;;;;5070831;28;20506;-86
2023/12/06 01:02:33;;;;;;;873.67;802.30;;;1.10;99.90;;;;;;5055020;28;20032;-86
2023/12/06 01:04:58;;;;;;;887.90;813.80;;;1.10;99.90;;;;;;5050690;28;20071;-86
2023/12/06 01:07:24;;;;;;;880.13;808.20;;;1.10;99.90;;;;;;5051834;28;20045;-86
2023/12/06 01:09:50;;;;;;;863.88;793.97;;;1.90;99.90;;;;;;5052468;28;20041;-86
2023/12/06 01:12:15;;;;;;;861.53;793.13;;;1.70;99.90;;;;;;5052606;28;20037;-87
2023/12/06 01:14:41;;;;;;;847.08;779.65;;;0.70;99.90;;;;;;5054553;28;20113;-87
2023/12/06 01:17:07;;;;;;;870.88;799.90;;;2.10;99.90;;;;;;5068331;28;20045;-87
2023/12/06 01:19:32;;;;;;;855.38;788.05;;;2.30;99.90;;;;;;5068558;28;20055;-87
2023/12/06 01:21:58;;;;;;;855.15;785.97;;;2.20;99.90;;;;;;5056875;28;20566;-87
2023/12/06 01:24:24;;;;;;;881.58;807.47;;;2.10;99.90;;;;;;5050816;28;20505;-86
2023/12/06 01:26:50;;;;;;;849.15;783.13;;;1.10;99.90;;;;;;5050876;28;20129;-86
2023/12/06 01:29:16;;;;;;;865.17;795.65;;;1.10;99.90;;;;;;5054843;28;20044;-86
2023/12/06 01:31:42;;;;;;;883.15;811.58;;;2.60;99.90;;;;;;5047397;28;20045;-86
2023/12/06 01:34:07;;;;;;;872.53;801.05;;;1.10;99.90;;;;;;5055636;28;20369;-87
2023/12/06 01:36:34;;;;;;;857.33;786.08;;;1.10;99.90;;;;;;5048729;28;20041;-87
2023/12/06 01:39:00;;;;;;;860.95;791.95;;;2.00;99.90;;;;;;5071150;28;20033;-87
2023/12/06 01:41:26;;;;;;;860.00;790.08;;;1.10;99.90;;;;;;5034653;28;20123;-85
2023/12/06 01:43:52;;;;;;;849.22;779.05;;;2.30;99.90;;;;;;5069999;28;20082;-87
2023/12/06 01:46:20;;;;;;;860.33;791.65;;;1.10;99.90;;;;;;5068862;28;20029;-87
2023/12/06 01:48:48;;;;;;;875.55;803.80;;;1.10;99.90;;;;;;5066829;28;20041;-87
2023/12/06 01:51:17;;;;;;;867.83;797.15;;;1.10;99.90;;;;;;5050650;28;20032;-87
2023/12/06 01:53:42;;;;;;;872.90;801.63;;;1.90;99.90;;;;;;5055382;28;20036;-87
2023/12/06 01:56:10;;;;;;;848.03;780.33;;;1.10;99.90;;;;;;5067273;28;20047;-87
2023/12/06 01:58:37;;;;;;;860.33;790.90;;;1.10;99.90;;;;;;5054100;28;20598;-86
2023/12/06 02:01:04;;;;;;;861.47;791.63;;;1.10;99.90;;;;;;5069024;28;20045;-86
2023/12/06 02:03:34;;;;;;;875.50;805.35;;;1.20;99.90;;;;;;5051199;28;20029;-86
2023/12/06 02:06:02;;;;;;;855.10;787.15;;;1.20;99.90;;;;;;5051155;28;20103;-86
2023/12/06 02:08:29;;;;;;;865.70;794.35;;;1.10;99.90;;;;;;5056554;28;20037;-86
2023/12/06 02:10:55;;;;;;;850.38;783.25;;;2.30;99.90;;;;;;5071180;28;20038;-86
2023/12/06 02:13:20;;;;;;;879.90;806.25;;;1.20;99.90;;;;;;5066104;28;20064;-86
2023/12/06 02:15:47;;;;;;;866.40;795.20;;;1.10;99.90;;;;;;5047246;28;20404;-86
2023/12/06 02:18:13;;;;;;;857.30;789.90;;;1.20;99.90;;;;;;5056134;28;20106;-86
2023/12/06 02:20:40;;;;;;;886.72;811.92;;;1.10;99.90;;;;;;5054172;28;20045;-86
2023/12/06 02:23:09;;;;;;;868.60;798.95;;;1.10;99.90;;;;;;5053285;28;20028;-87
2023/12/06 02:25:34;;;;;;;850.22;781.53;;;1.20;99.90;;;;;;5052113;28;20033;-87
2023/12/06 02:28:00;;;;;;;865.42;791.78;;;1.20;99.90;;;;;;5050896;28;20124;-86
2023/12/06 02:30:26;;;;;;;872.05;801.17;;;1.50;99.90;;;;;;5050992;28;20041;-86
2023/12/06 02:32:51;;;;;;;868.15;797.53;;;1.40;99.90;;;;;;5055319;28;20036;-86
2023/12/06 02:35:25;;;;;;;865.78;794.83;;;1.20;99.90;;;;;;5050040;28;20106;-86
2023/12/06 02:37:54;;;;;;;870.13;799.65;;;2.30;99.90;;;;;;5059733;28;20513;-86
2023/12/06 02:40:20;;;;;;;851.58;781.70;;;2.40;99.90;;;;;;5047076;28;20068;-86
2023/12/06 02:42:46;;;;;;;867.42;794.97;;;1.90;99.90;;;;;;5075366;28;20041;-86
2023/12/06 02:45:12;;;;;;;854.97;787.38;;;2.10;99.90;;;;;;5056982;28;20096;-86
2023/12/06 02:47:38;;;;;;;861.10;789.90;;;2.60;99.90;;;;;;5054894;28;20177;-86
2023/12/06 02:50:04;;;;;;;871.25;801.10;;;1.20;99.90;;;;;;5052045;28;20043;-85
2023/12/06 02:52:30;;;;;;;847.67;779.40;;;1.20;99.90;;;;;;5049198;28;20059;-86
2023/12/06 02:54:55;;;;;;;873.78;801.20;;;2.20;99.90;;;;;;5053447;28;20677;-86
2023/12/06 02:57:21;;;;;;;870.05;799.45;;;1.10;99.90;;;;;;5049920;28;20524;-87
2023/12/06 02:59:47;;;;;;;860.78;791.67;;;2.10;99.90;;;;;;5053653;28;20123;-87
2023/12/06 03:02:12;;;;;;;897.13;820.47;;;2.10;99.90;;;;;;5051134;28;20032;-86
2023/12/06 03:04:38;;;;;;;858.90;788.45;;;1.20;99.90;;;;;;5063921;28;20460;-87
2023/12/06 03:07:03;;;;;;;875.25;803.60;;;1.20;99.90;;;;;;5068505;28;20036;-86
2023/12/06 03:09:29;;;;;;;869.15;800.28;;;1.20;99.90;;;;;;5054192;28;20040;-87
2023/12/06 03:11:55;;;;;;;875.67;804.58;;;1.80;99.90;;;;;;5066777;28;20041;-87
2023/12/06 03:14:20;;;;;;;887.15;816.45;;;1.70;99.90;;;;;;5071023;28;20041;-86
2023/12/06 03:16:46;;;;;;;860.13;792.28;;;1.20;99.90;;;;;;5056694;28;20057;-87
2023/12/06 03:19:11;;;;;;;877.08;806.65;;;1.20;99.90;;;;;;5049890;28;20053;-87
2023/12/06 03:21:37;;;;;;;875.70;806.65;;;2.20;99.90;;;;;;5070287;28;20041;-87
2023/12/06 03:24:06;;;;;;;868.75;799.88;;;1.30;99.90;;;;;;5052179;28;20032;-87
2023/12/06 03:26:32;;;;;;;859.95;793.03;;;2.20;99.90;;;;;;5049891;28;20039;-87
2023/12/06 03:29:00;;;;;;;887.70;817.47;;;2.70;99.90;;;;;;5083203;28;20035;-87
2023/12/06 03:31:26;;;;;;;892.38;820.70;;;1.90;99.90;;;;;;5066693;28;20029;-87
2023/12/06 03:33:51;;;;;;;868.20;799.47;;;1.20;99.90;;;;;;5054146;28;20053;-86
2023/12/06 03:36:17;;;;;;;874.28;806.10;;;1.00;99.90;;;;;;5049728;28;20041;-87
2023/12/06 03:38:43;;;;;;;866.38;797.65;;;1.20;99.90;;;;;;5066357;28;20029;-87
2023/12/06 03:41:09;;;;;;;872.58;803.97;;;2.50;99.90;;;;;;5053588;28;20039;-88
2023/12/06 03:43:35;;;;;;;885.78;815.75;;;2.60;99.90;;;;;;5054193;28;20044;-87
2023/12/06 03:46:00;;;;;;;869.65;800.35;;;2.00;99.90;;;;;;5054217;28;20404;-87
2023/12/06 03:48:26;;;;;;;859.25;791.38;;;3.00;99.90;;;;;;5049705;28;20033;-87
2023/12/06 03:50:52;;;;;;;864.08;795.67;;;2.70;99.90;;;;;;5049305;28;20040;-88
2023/12/06 03:53:17;;;;;;;863.22;795.17;;;2.20;99.90;;;;;;5049857;28;20037;-88
2023/12/06 03:55:43;;;;;;;853.42;787.53;;;1.70;99.90;;;;;;5049289;28;20058;-88
2023/12/06 03:58:09;;;;;;;854.90;787.05;;;2.40;99.90;;;;;;5046032;28;20040;-87
2023/12/06 04:00:35;;;;;;;858.97;787.97;;;2.80;99.90;;;;;;5045738;28;20033;-88
2023/12/06 04:03:00;;;;;;;852.33;784.13;;;1.20;99.90;;;;;;5086134;28;20032;-88
2023/12/06 04:05:26;;;;;;;880.65;809.90;;;1.20;99.90;;;;;;5051018;28;20068;-87
2023/12/06 04:07:52;;;;;;;841.17;776.28;;;1.10;99.90;;;;;;5045405;28;20133;-87
2023/12/06 04:10:17;;;;;;;853.55;786.28;;;1.20;99.90;;;;;;5065369;28;20044;-88
2023/12/06 04:12:43;;;;;;;855.33;787.05;;;1.20;99.90;;;;;;5067724;28;20044;-87
2023/12/06 04:15:09;;;;;;;854.80;788.00;;;2.20;99.90;;;;;;5049318;28;20075;-88
2023/12/06 04:17:35;;;;;;;835.05;771.17;;;1.20;99.90;;;;;;5053283;28;20045;-87
2023/12/06 04:20:00;;;;;;;839.53;773.22;;;1.20;99.90;;;;;;5047553;28;20132;-88
2023/12/06 04:22:26;;;;;;;834.75;769.72;;;2.50;99.90;;;;;;5053695;28;20059;-88
2023/12/06 04:24:53;;;;;;;860.80;792.58;;;2.70;99.90;;;;;;5056930;28;20036;-88
2023/12/06 04:27:18;;;;;;;852.53;784.05;;;1.20;99.90;;;;;;5048962;28;20409;-87
2023/12/06 04:29:44;;;;;;;827.33;764.53;;;2.20;99.90;;;;;;5069060;28;20036;-87
2023/12/06 04:32:10;;;;;;;868.38;796.95;;;1.20;99.90;;;;;;5055756;28;20028;-88
2023/12/06 04:34:46;;;;;;;849.22;783.83;;;1.20;99.90;;;;;;5054864;28;20037;-88
2023/12/06 04:37:11;;;;;;;859.50;788.30;;;2.30;99.90;;;;;;5069763;28;20511;-88
2023/12/06 04:39:37;;;;;;;864.13;796.00;;;2.30;99.90;;;;;;5069373;28;20060;-88
2023/12/06 04:42:03;;;;;;;856.30;789.78;;;2.50;99.90;;;;;;5055977;28;20083;-88
2023/12/06 04:44:29;;;;;;;857.05;791.92;;;0.40;99.90;;;;;;5051547;28;20140;-88
2023/12/06 04:46:54;;;;;;;868.40;799.28;;;1.20;99.90;;;;;;5067540;28;20077;-87
2023/12/06 04:49:20;;;;;;;852.40;785.85;;;1.20;99.90;;;;;;5053978;28;20056;-88
2023/12/06 04:51:45;;;;;;;843.88;779.10;;;1.80;99.90;;;;;;5069328;28;20090;-88
2023/12/06 04:54:11;;;;;;;857.20;790.00;;;1.20;99.90;;;;;;5068534;28;20044;-87
2023/12/06 04:56:37;;;;;;;841.42;777.33;;;1.20;99.90;;;;;;5051908;28;20064;-87
2023/12/06 04:59:03;;;;;;;858.67;790.85;;;2.70;99.90;;;;;;5067058;28;20048;-88
2023/12/06 05:01:28;;;;;;;849.40;784.13;;;1.20;99.90;;;;;;5049459;28;20658;-88
2023/12/06 05:03:55;;;;;;;851.78;784.10;;;1.10;99.90;;;;;;5072109;28;20044;-88
2023/12/06 05:06:20;;;;;;;865.65;795.88;;;1.20;99.90;;;;;;5055554;28;20497;-87
2023/12/06 05:08:46;;;;;;;861.42;793.47;;;2.40;99.90;;;;;;5050987;28;20029;-87
2023/12/06 05:11:12;;;;;;;850.10;782.85;;;1.30;99.90;;;;;;5057727;28;20114;-87
2023/12/06 05:13:37;;;;;;;856.50;790.90;;;1.20;99.90;;;;;;5064046;28;20033;-87
2023/12/06 05:16:03;;;;;;;897.47;822.03;;;1.00;99.90;;;;;;5052575;28;20085;-87
2023/12/06 05:18:29;;;;;;;878.35;808.55;;;0.00;99.90;;;;;;5051675;28;20059;-87
2023/12/06 05:20:55;;;;;;;865.60;797.45;;;1.30;99.90;;;;;;5056293;28;20228;-88
2023/12/06 05:23:20;;;;;;;856.20;789.10;;;2.10;99.90;;;;;;5050381;28;20430;-87
2023/12/06 05:25:46;;;;;;;880.47;810.60;;;2.10;99.90;;;;;;5053563;28;20033;-87
2023/12/06 05:28:12;;;;;;;866.17;798.88;;;2.60;99.90;;;;;;5050393;28;20569;-87
2023/12/06 05:30:37;;;;;;;860.50;791.28;;;1.30;99.90;;;;;;5055037;28;20407;-87
2023/12/06 05:33:04;;;;;;;859.50;792.33;;;2.70;99.90;;;;;;5050759;28;20052;-87
2023/12/06 05:35:30;;;;;;;841.78;777.85;;;1.30;99.90;;;;;;5073766;28;20041;-87
2023/12/06 05:37:55;;;;;;;858.13;790.80;;;1.30;99.90;;;;;;5048168;28;20041;-87
2023/12/06 05:40:21;;;;;;;842.28;778.72;;;1.30;99.90;;;;;;5066150;28;20036;-87
2023/12/06 05:42:47;;;;;;;879.63;807.70;;;1.30;99.90;;;;;;5051561;28;20033;-87
2023/12/06 05:45:14;;;;;;;848.78;782.63;;;1.30;99.90;;;;;;5069688;28;20045;-87
2023/12/06 05:47:40;;;;;;;862.40;791.97;;;1.90;99.90;;;;;;5047999;28;20093;-87
2023/12/06 05:50:06;;;;;;;858.55;788.03;;;1.30;99.90;;;;;;5063671;28;20083;-87
2023/12/06 05:52:33;;;;;;;851.83;785.95;;;1.30;99.90;;;;;;5052196;28;20037;-87
2023/12/06 05:54:59;;;;;;;878.83;805.50;;;1.30;99.90;;;;;;5049871;28;20032;-87
2023/12/06 05:57:25;;;;;;;847.75;781.15;;;1.30;99.90;;;;;;5053987;28;20120;-86
2023/12/06 05:59:51;;;;;;;881.92;808.38;;;1.30;99.90;;;;;;5053667;28;20052;-87
2023/12/06 06:02:17;;;;;;;854.65;787.25;;;1.30;99.90;;;;;;5055763;28;20041;-86
2023/12/06 06:04:42;;;;;;;880.10;808.38;;;1.30;99.90;;;;;;5071230;28;20041;-87
2023/12/06 06:07:08;;;;;;;842.35;774.47;;;2.40;99.90;;;;;;5044136;28;20028;-86
2023/12/06 06:09:34;;;;;;;889.50;816.28;;;2.50;99.90;;;;;;5056391;28;20040;-86
2023/12/06 06:11:59;;;;;;;856.38;789.65;;;2.50;99.90;;;;;;5059568;28;20037;-87
2023/12/06 06:14:25;;;;;;;899.22;821.72;;;1.40;99.90;;;;;;5082811;28;20423;-87
2023/12/06 06:16:51;;;;;;;866.00;796.72;;;1.30;99.90;;;;;;5056393;28;20593;-86
2023/12/06 06:19:16;;;;;;;870.13;798.40;;;1.40;99.90;;;;;;5058665;28;20044;-87
2023/12/06 06:21:42;;;;;;;863.17;795.65;;;2.60;99.90;;;;;;5056597;28;20091;-87
2023/12/06 06:24:09;;;;;;;858.92;790.85;;;2.80;99.90;;;;;;5060329;28;20023;-87
2023/12/06 06:26:35;;;;;;;850.63;784.45;;;3.50;99.90;;;;;;5059753;28;20037;-87
2023/12/06 06:29:01;;;;;;;864.25;793.05;;;2.30;99.90;;;;;;5056482;28;20044;-87
2023/12/06 06:31:27;;;;;;;855.83;789.05;;;1.70;99.90;;;;;;5071519;28;20505;-87
2023/12/06 06:33:52;;;;;;;852.65;785.85;;;1.40;99.90;;;;;;5074005;28;20032;-87
2023/12/06 06:36:18;;;;;;;868.50;799.15;;;2.90;99.90;;;;;;5060447;28;20060;-87
2023/12/06 06:38:44;;;;;;;847.35;780.53;;;2.70;99.90;;;;;;5059499;28;20044;-87
2023/12/06 06:41:10;;;;;;;888.33;810.63;;;1.40;99.90;;;;;;5060859;28;20093;-87
2023/12/06 06:43:36;;;;;;;881.47;808.45;;;2.00;99.90;;;;;;5060625;28;20048;-87
2023/12/06 06:46:02;;;;;;;840.42;774.85;;;1.80;99.90;;;;;;5055440;28;20038;-87
2023/12/06 06:48:28;;;;;;;821.45;759.85;;;1.50;99.90;;;;;;5059307;28;20093;-87
2023/12/06 06:50:53;;;;;;;837.30;771.50;;;0.40;99.90;;;;;;5055320;28;20417;-87
2023/12/06 06:53:19;;;;;;;841.58;774.85;;;1.40;99.90;;;;;;5053703;28;20110;-87
2023/12/06 06:55:45;;;;;;;843.05;779.00;;;1.60;99.90;;;;;;5064316;28;20195;-86
2023/12/06 06:58:10;;;;;;;850.88;782.65;;;1.50;99.90;;;;;;5055913;28;20037;-87
2023/12/06 07:00:36;;;;;;;855.08;786.33;;;0.80;99.90;;;;;;5072198;28;20029;-87
2023/12/06 07:03:02;;;;;;;857.58;787.58;;;1.30;99.90;;;;;;5055051;28;20098;-86
2023/12/06 07:05:27;;;;;;;853.08;787.17;;;1.50;99.90;;;;;;5055314;28;20155;-87
2023/12/06 07:07:53;;;;;;;847.63;783.13;;;2.90;99.90;;;;;;5050462;28;20047;-86
2023/12/06 07:10:19;;;;;;;820.17;758.80;;;2.60;99.90;;;;;;5074339;28;20310;-86
2023/12/06 07:12:45;;;;;;;853.38;787.15;;;2.80;99.90;;;;;;5056362;28;20060;-87
2023/12/06 07:15:14;;;;;;;838.83;774.17;;;3.00;99.90;;;;;;5075604;28;20040;-86
2023/12/06 07:17:42;;;;;;;849.55;783.58;;;1.50;99.90;;;;;;5072400;28;20053;-87
2023/12/06 07:20:11;;;;;;;865.03;797.28;;;2.90;99.90;;;;;;5059655;28;20036;-86
2023/12/06 07:22:37;;;;;;;858.55;790.13;;;1.50;99.90;;;;;;5060701;28;20045;-86
2023/12/06 07:25:06;;;;;;;847.25;778.90;;;1.50;99.90;;;;;;5056558;28;20043;-87
2023/12/06 07:27:32;;;;;;;855.08;787.47;;;1.40;99.90;;;;;;5072980;28;20041;-87
2023/12/06 07:29:57;;;;;;;850.75;781.45;;;2.10;99.90;;;;;;5065357;28;20075;-87
2023/12/06 07:32:23;;;;;;;817.17;752.90;;;2.10;99.90;;;;;;5058794;28;20045;-88
2023/12/06 07:34:49;;;;;;;846.10;778.92;;;1.50;99.90;;;;;;5057331;28;20037;-88
2023/12/06 07:37:18;;;;;;;848.50;781.15;;;1.40;99.90;;;;;;5070418;28;20041;-88
2023/12/06 07:39:43;;;;;;;844.17;774.22;;;2.80;99.90;;;;;;5040235;28;20028;-88
2023/12/06 07:42:09;;;;;;;854.47;786.33;;;2.90;99.90;;;;;;5052930;28;20036;-87
2023/12/06 07:44:35;;;;;;;863.80;794.10;;;1.60;99.90;;;;;;5041990;28;20506;-87
2023/12/06 07:47:01;;;;;;;873.15;800.88;;;1.50;99.90;;;;;;5072886;28;20037;-87
2023/12/06 07:49:27;;;;;;;855.38;788.17;;;1.50;99.90;;;;;;5060356;28;20235;-87
2023/12/06 07:51:53;;;;;;;844.92;778.33;;;2.90;99.90;;;;;;5060514;28;20292;-86
2023/12/06 07:54:20;;;;;;;833.00;767.63;;;1.60;99.90;;;;;;5049682;28;20037;-87
2023/12/06 07:56:49;;;;;;;849.60;783.40;;;2.10;99.90;;;;;;5055986;28;20056;-87
2023/12/06 07:59:14;;;;;;;871.85;800.20;;;1.60;99.90;;;;;;5060570;28;20115;-87
2023/12/06 08:01:44;;;;;;;862.08;793.78;;;1.60;99.90;;;;;;5045715;28;20056;-88
2023/12/06 08:04:15;;;;;;;827.72;759.97;;;1.60;99.90;;;;;;5075087;28;20040;-87
2023/12/06 08:06:41;;;;;;;865.67;795.47;;;2.90;99.90;;;;;;5074627;28;20040;-87
2023/12/06 08:09:10;;;;;;;831.72;764.75;;;1.60;99.90;;;;;;5061880;28;20033;-87
2023/12/06 08:11:38;;;;;;;846.13;777.15;;;2.60;99.90;;;;;;5059132;28;20045;-87
2023/12/06 08:14:07;;;;;;;857.10;785.92;;;2.10;99.90;;;;;;5055917;28;20033;-86
2023/12/06 08:16:32;;;;;;;842.42;775.70;;;1.60;99.90;;;;;;5063903;28;20826;-87
2023/12/06 08:18:58;;;;;;;828.50;762.30;;;1.60;99.90;;;;;;5059253;28;20057;-87
2023/12/06 08:21:24;;;;;;;856.92;783.67;;;1.70;99.90;;;;;;5063424;28;20086;-86
2023/12/06 08:23:50;;;;;;;822.45;756.15;;;1.60;99.90;;;;;;5060246;28;20028;-87
2023/12/06 08:26:16;;;;;;;838.03;771.53;;;1.60;99.90;;;;;;5078358;28;20044;-87
2023/12/06 08:28:42;;;;;;;837.33;772.40;;;1.70;99.90;;;;;;5058236;28;20041;-87
2023/12/06 08:31:10;;;;;;;847.35;777.20;;;1.60;99.90;;;;;;5057861;28;20074;-87
2023/12/06 08:33:36;;;;;;;859.83;784.85;;;1.70;99.90;;;;;;5043431;28;20052;-87
2023/12/06 08:36:02;;;;;;;866.20;793.75;;;2.90;99.90;;;;;;5059627;28;20037;-86
2023/12/06 08:38:28;;;;;;;863.00;791.28;;;1.70;99.90;;;;;;5058315;28;20047;-87
2023/12/06 08:40:54;;;;;;;849.00;780.13;;;1.70;99.90;;;;;;5058329;28;20286;-87
2023/12/06 08:43:20;;;;;;;848.35;778.47;;;2.70;99.90;;;;;;5062324;28;20040;-87
2023/12/06 08:45:46;;;;;;;862.63;789.92;;;3.30;99.90;;;;;;5057675;28;20059;-86
2023/12/06 08:48:14;;;;;;;857.97;788.42;;;3.10;99.90;;;;;;5063123;28;20175;-87
2023/12/06 08:50:39;;;;;;;822.90;758.15;;;2.90;99.90;;;;;;5058361;28;20287;-87
2023/12/06 08:53:08;;;;;;;866.97;792.78;;;2.90;99.90;;;;;;5058157;28;20250;-87
2023/12/06 08:55:34;;;;;;;837.05;772.42;;;2.80;99.90;;;;;;5062750;28;20051;-87
2023/12/06 08:58:00;;;;;;;840.22;771.72;;;3.30;99.90;;;;;;5059068;28;20036;-86
2023/12/06 09:00:26;;;;;;;862.40;790.38;;;2.70;99.90;;;;;;5061520;28;20045;-86
2023/12/06 09:02:51;;;;;;;835.28;768.75;;;1.90;99.90;;;;;;5059091;28;20056;-87
2023/12/06 09:05:17;;;;;;;849.28;779.53;;;3.20;99.90;;;;;;5060267;28;20108;-86
2023/12/06 09:07:43;;;;;;;834.40;765.58;;;2.90;99.90;;;;;;5053391;28;20036;-86
2023/12/06 09:10:09;;;;;;;845.92;778.60;;;3.50;99.90;;;;;;5061099;28;20131;-86
2023/12/06 09:12:35;;;;;;;866.53;795.05;;;2.00;99.90;;;;;;5055956;28;20039;-86
2023/12/06 09:15:00;;;;;;;842.03;775.75;;;1.00;99.90;;;;;;5052938;28;20037;-86
2023/12/06 09:17:26;;;;;;;851.63;782.33;;;2.70;99.90;;;;;;5063212;28;20067;-86
2023/12/06 09:19:52;;;;;;;857.17;788.03;;;3.40;99.90;;;;;;5070903;28;20055;-86
2023/12/06 09:22:20;;;;;;;843.72;775.38;;;3.30;99.90;;;;;;5056556;28;20037;-85
2023/12/06 09:24:47;;;;;;;811.63;746.83;;;3.60;99.90;;;;;;5058915;28;20055;-86
2023/12/06 09:27:12;;;;;;;834.33;767.28;;;3.50;99.90;;;;;;5060438;28;20037;-86
2023/12/06 09:29:39;;;;;;;838.88;771.78;;;3.20;99.90;;;;;;5060569;28;20114;-86
2023/12/06 09:32:05;;;;;;;836.58;770.65;;;3.20;99.90;;;;;;5054344;28;20036;-86
2023/12/06 09:34:34;;;;;;;825.85;761.05;;;2.40;99.90;;;;;;5057168;28;20424;-86
2023/12/06 09:37:00;;;;;;;844.05;775.47;;;2.10;99.90;;;;;;5054813;28;20079;-86
2023/12/06 09:39:26;;;;;;;801.95;737.10;;;3.20;99.90;;;;;;5062894;28;20310;-87
2023/12/06 09:41:52;;;;;;;862.35;791.50;;;2.50;99.90;;;;;;5060343;28;20036;-87
2023/12/06 09:44:18;;;;;;;840.78;772.25;;;1.80;99.90;;;;;;5062319;28;20039;-87
2023/12/06 09:46:46;;;;;;;841.10;772.13;;;2.20;99.90;;;;;;5057320;28;20035;-87
2023/12/06 09:49:12;;;;;;;828.30;763.35;;;2.30;99.90;;;;;;5061574;28;20044;-87
2023/12/06 09:51:38;;;;;;;822.35;757.67;;;3.40;99.90;;;;;;5071819;28;20052;-88
2023/12/06 09:54:03;;;;;;;841.80;773.67;;;2.30;99.90;;;;;;5050955;28;20093;-87
2023/12/06 09:56:33;;;;;;;811.03;746.88;;;3.30;99.90;;;;;;5051404;28;20238;-87
2023/12/06 09:58:58;;;;;;;807.58;746.75;;;3.30;99.90;;;;;;5054641;28;20037;-87
2023/12/06 10:01:24;;;;;;;812.72;748.28;;;2.30;99.90;;;;;;5056692;28;20064;-87
2023/12/06 10:03:50;;;;;;;832.58;766.35;;;2.70;99.90;;;;;;5074481;28;20062;-87
2023/12/06 10:06:17;;;;;;;837.35;771.22;;;2.20;99.90;;;;;;5066831;28;20064;-87
2023/12/06 10:08:48;;;;;;;853.95;782.53;;;3.30;99.90;;;;;;5063903;28;20049;-87
2023/12/06 10:11:13;;;;;;;825.60;758.90;;;2.20;99.90;;;;;;5057339;28;20058;-87
2023/12/06 10:13:42;;;;;;;817.95;755.05;;;2.10;99.90;;;;;;5058034;28;20073;-88
2023/12/06 10:16:21;;;;;;;833.10;766.28;;;3.80;99.90;;;;;;5056492;28;20037;-88
2023/12/06 10:18:49;;;;;;;833.20;763.55;;;2.50;99.90;;;;;;5053593;28;20045;-88
2023/12/06 10:21:17;;;;;;;863.47;790.72;;;2.90;99.90;;;;;;5048454;28;20147;-88
2023/12/06 10:23:55;;;;;;;838.15;771.13;;;2.50;99.90;;;;;;5043561;28;20029;-88
2023/12/06 10:26:21;;;;;;;825.08;760.47;;;2.60;99.90;;;;;;5046402;28;20041;-88
2023/12/06 10:28:47;;;;;;;841.88;774.42;;;2.60;99.90;;;;;;5044462;28;20041;-88
2023/12/06 10:31:13;;;;;;;825.45;762.03;;;2.60;99.90;;;;;;5041577;28;20082;-88
2023/12/06 10:33:39;;;;;;;849.30;780.88;;;2.60;99.90;;;;;;5042952;28;20033;-88
2023/12/06 10:36:08;;;;;;;857.30;786.83;;;2.70;99.90;;;;;;5044798;28;20493;-88
2023/12/06 10:38:40;;;;;;;811.28;746.92;;;2.70;99.90;;;;;;5057583;28;20032;-88
2023/12/06 10:41:09;;;;;;;843.60;775.53;;;2.60;99.90;;;;;;5073351;28;20032;-88
2023/12/06 10:43:35;;;;;;;832.40;766.72;;;2.70;99.90;;;;;;5057566;28;20044;-88
2023/12/06 10:46:01;;;;;;;841.13;772.95;;;2.70;99.90;;;;;;5044321;28;20382;-88
2023/12/06 10:48:28;;;;;;;830.08;764.17;;;2.70;99.90;;;;;;5041601;28;20440;-88
2023/12/06 10:50:56;;;;;;;845.92;776.10;;;2.70;99.90;;;;;;5043233;28;20036;-88
2023/12/06 10:53:22;;;;;;;853.03;780.85;;;3.70;99.90;;;;;;5041634;28;20037;-88
2023/12/06 10:55:48;;;;;;;830.03;764.95;;;3.30;99.90;;;;;;5042624;28;20041;-88
2023/12/06 10:58:17;;;;;;;831.22;764.03;;;3.90;99.90;;;;;;5041587;28;20497;-88
2023/12/06 11:00:43;;;;;;;833.42;767.10;;;3.60;99.90;;;;;;5043132;28;20077;-88
2023/12/06 11:03:12;;;;;;;821.88;757.53;;;2.80;99.90;;;;;;5043019;28;20028;-88
2023/12/06 11:05:43;;;;;;;855.67;785.60;;;4.00;99.90;;;;;;5044719;28;20036;-89
2023/12/06 11:08:38;;;;;;;861.33;787.10;;;2.80;99.90;;;;;;5037550;28;20037;-89
2023/12/06 11:11:13;;;;;;;847.65;777.47;;;2.90;99.90;;;;;;5040481;28;20503;-89
2023/12/06 11:14:21;;;;;;;863.47;787.15;;;2.90;99.90;;;;;;5040857;28;20143;-89
2023/12/06 11:17:06;;;;;;;858.75;786.35;;;3.00;99.90;;;;;;5016838;28;20119;-89
2023/12/06 11:19:33;;;;;;;842.40;776.38;;;3.00;99.90;;;;;;5039736;28;20075;-89
2023/12/06 11:22:02;;;;;;;823.70;757.97;;;3.00;99.90;;;;;;5043490;28;20028;-88
2023/12/06 11:24:28;;;;;;;860.45;791.28;;;3.50;99.90;;;;;;5035968;28;20029;-88
2023/12/06 11:26:55;;;;;;;857.65;787.92;;;3.10;99.90;;;;;;5035828;28;20055;-88
2023/12/06 11:29:21;;;;;;;881.60;805.05;;;3.10;99.90;;;;;;5035536;28;20136;-88
2023/12/06 11:31:55;;;;;;;864.80;796.10;;;4.50;99.90;;;;;;5034846;28;20489;-88
2023/12/06 11:34:33;;;;;;;843.95;776.58;;;3.10;99.90;;;;;;5038116;28;20505;-88
2023/12/06 11:37:01;;;;;;;873.20;800.05;;;3.10;99.90;;;;;;5040890;28;20120;-88
2023/12/06 11:39:26;;;;;;;841.88;773.08;;;3.20;99.90;;;;;;5039887;28;20045;-88
2023/12/06 11:41:53;;;;;;;858.38;789.60;;;3.20;99.90;;;;;;5041621;28;20114;-88
2023/12/06 11:44:19;;;;;;;872.75;800.85;;;4.30;99.90;;;;;;5043067;28;20040;-88
2023/12/06 11:46:52;;;;;;;870.20;795.65;;;3.70;99.90;;;;;;5035053;28;20024;-88
2023/12/06 11:49:27;;;;;;;806.45;747.00;;;3.30;99.90;;;;;;5052947;28;20045;-88
2023/12/06 11:52:02;;;;;;;829.90;764.72;;;3.30;99.90;;;;;;5035821;28;20088;-88
2023/12/06 11:54:28;;;;;;;862.92;791.63;;;3.40;99.90;;;;;;5041156;28;20051;-87
2023/12/06 11:57:11;;;;;;;878.42;805.42;;;3.40;99.90;;;;;;5039563;28;20045;-87
2023/12/06 11:59:39;;;;;;;848.83;781.83;;;3.40;99.90;;;;;;5038034;28;20045;-87
2023/12/06 12:02:06;;;;;;;896.10;817.13;;;3.40;99.90;;;;;;5041254;28;20112;-87
2023/12/06 12:04:34;;;;;;;869.53;796.20;;;4.20;99.90;;;;;;5041028;28;20136;-87
2023/12/06 12:07:00;;;;;;;880.85;804.47;;;3.40;99.90;;;;;;5041854;28;20036;-87
2023/12/06 12:09:26;;;;;;;889.30;811.17;;;3.40;99.90;;;;;;5041107;28;20059;-87
2023/12/06 12:11:52;;;;;;;904.38;823.10;;;3.40;99.90;;;;;;5043196;28;20127;-88
2023/12/06 12:14:18;;;;;;;874.45;798.33;;;3.40;99.90;;;;;;5040283;28;20036;-88
2023/12/06 12:16:44;;;;;;;928.88;839.03;;;3.40;99.90;;;;;;5041745;28;21092;-88